Time;durP1;ratioP1;P1;durP2;ratioP2;P2;SDS_P1;SDS_P2;PMS_P1;PMS_P2;Temp;Humidity;BMP_temperature;BMP_pressure;BME280_temperature;BME280_humidity;BME280_pressure;Samples;Min_cycle;Max_cycle;Signal;HPM_P1;HPM_P2
2022/06/28 00:02:12;;;;;;;9.98;7.68;;;;;;;;;;4988662;28;20045;-73
2022/06/28 00:04:38;;;;;;;13.30;8.00;;;;;;;;;;5004832;28;20119;-73
2022/06/28 00:07:04;;;;;;;7.93;7.13;;;;;;;;;;5005485;28;20085;-73
2022/06/28 00:09:30;;;;;;;10.00;7.82;;;;;;;;;;5004329;28;20050;-73
2022/06/28 00:11:56;;;;;;;9.68;7.68;;;;;;;;;;5006417;28;20036;-73
2022/06/28 00:17:07;;;;;;;10.13;7.57;;;;;;;;;;5006098;28;20108;-73
2022/06/28 00:19:33;;;;;;;10.43;7.43;;;;;;;;;;5002367;28;20080;-73
2022/06/28 00:21:59;;;;;;;11.88;7.47;;;;;;;;;;5004285;28;20073;-73
2022/06/28 00:24:26;;;;;;;9.35;7.82;;;;;;;;;;5005969;28;20042;-72
2022/06/28 00:26:52;;;;;;;9.27;7.43;;;;;;;;;;4989330;28;20050;-73
2022/06/28 00:29:19;;;;;;;10.65;8.55;;;;;;;;;;5005234;28;20037;-73
2022/06/28 00:31:45;;;;;;;8.48;7.20;;;;;;;;;;5003175;28;20471;-73
2022/06/28 00:34:11;;;;;;;10.07;7.10;;;;;;;;;;5005219;28;20038;-72
2022/06/28 00:36:36;;;;;;;32.97;7.95;;;;;;;;;;4989365;28;20049;-72
2022/06/28 00:39:03;;;;;;;10.90;7.70;;;;;;;;;;5003768;28;20038;-72
2022/06/28 00:41:29;;;;;;;9.98;6.78;;;;;;;;;;5002176;28;20037;-73
2022/06/28 00:43:55;;;;;;;13.95;7.10;;;;;;;;;;5004648;28;20042;-73
2022/06/28 00:46:21;;;;;;;7.75;6.47;;;;;;;;;;5005833;28;20409;-73
2022/06/28 00:48:48;;;;;;;9.88;7.00;;;;;;;;;;5004128;28;20038;-73
2022/06/28 00:51:14;;;;;;;9.63;7.22;;;;;;;;;;5004287;28;20037;-73
2022/06/28 00:53:40;;;;;;;10.48;6.78;;;;;;;;;;5005100;28;20042;-72
2022/06/28 00:56:06;;;;;;;11.00;6.90;;;;;;;;;;5003696;28;20041;-72
2022/06/28 00:58:32;;;;;;;14.23;6.35;;;;;;;;;;5003380;28;20068;-73
2022/06/28 01:00:58;;;;;;;12.07;7.18;;;;;;;;;;5002813;28;20052;-73
2022/06/28 01:03:24;;;;;;;13.23;6.57;;;;;;;;;;5005395;28;20066;-73
2022/06/28 01:05:52;;;;;;;9.75;6.63;;;;;;;;;;5004145;28;20042;-73
2022/06/28 01:08:18;;;;;;;10.43;6.57;;;;;;;;;;4987214;28;20061;-72
2022/06/28 01:10:45;;;;;;;8.23;6.15;;;;;;;;;;5005137;28;20037;-73
2022/06/28 01:13:12;;;;;;;12.90;6.38;;;;;;;;;;5004044;28;20044;-73
2022/06/28 01:15:40;;;;;;;8.77;5.93;;;;;;;;;;5005772;28;20474;-73
2022/06/28 01:18:06;;;;;;;8.85;5.95;;;;;;;;;;5004348;28;20038;-73
2022/06/28 01:20:33;;;;;;;6.50;5.90;;;;;;;;;;5003669;28;20158;-73
2022/06/28 01:22:59;;;;;;;9.18;6.13;;;;;;;;;;5003519;28;20030;-73
2022/06/28 01:25:25;;;;;;;14.23;5.80;;;;;;;;;;5004303;28;20040;-73
2022/06/28 01:27:51;;;;;;;6.72;5.85;;;;;;;;;;5005034;28;20524;-73
2022/06/28 01:30:17;;;;;;;8.82;5.78;;;;;;;;;;5001650;28;20478;-73
2022/06/28 01:32:44;;;;;;;9.93;6.13;;;;;;;;;;5001751;28;20132;-72
2022/06/28 01:35:10;;;;;;;12.05;6.15;;;;;;;;;;5003102;28;20037;-73
2022/06/28 01:37:36;;;;;;;11.57;6.30;;;;;;;;;;5002539;28;20083;-74
2022/06/28 01:40:03;;;;;;;13.48;5.65;;;;;;;;;;5005950;28;20021;-73
2022/06/28 01:42:30;;;;;;;11.80;5.80;;;;;;;;;;5003778;28;20034;-73
2022/06/28 01:44:57;;;;;;;9.27;6.05;;;;;;;;;;5003601;28;20034;-73
2022/06/28 01:47:26;;;;;;;9.95;5.65;;;13.30;99.90;;;;;;5003031;28;20057;-73
2022/06/28 01:49:52;;;;;;;14.23;6.03;;;;;;;;;;5004281;28;20079;-73
2022/06/28 01:52:18;;;;;;;13.63;6.22;;;;;;;;;;5002149;28;20586;-73
2022/06/28 01:54:45;;;;;;;10.40;5.88;;;;;;;;;;4998757;28;20066;-73
2022/06/28 01:57:11;;;;;;;11.57;5.05;;;;;;;;;;5002824;28;20030;-73
2022/06/28 01:59:41;;;;;;;12.32;5.10;;;13.20;99.90;;;;;;5005073;28;20478;-73
2022/06/28 02:02:07;;;;;;;10.70;5.45;;;;;;;;;;5003241;28;20057;-73
2022/06/28 02:04:33;;;;;;;9.63;5.00;;;;;;;;;;5002423;28;20492;-73
2022/06/28 02:06:59;;;;;;;9.15;4.85;;;;;;;;;;5003215;28;20023;-73
2022/06/28 02:09:26;;;;;;;9.55;5.35;;;;;;;;;;4997987;28;20103;-73
2022/06/28 02:11:52;;;;;;;15.55;5.30;;;;;;;;;;5003915;28;20257;-73
2022/06/28 02:14:19;;;;;;;11.95;5.00;;;;;;;;;;5003002;28;20041;-73
2022/06/28 02:16:45;;;;;;;5.85;4.25;;;;;;;;;;5004249;28;20036;-73
2022/06/28 02:19:12;;;;;;;8.18;5.13;;;;;;;;;;5002532;28;20117;-73
2022/06/28 02:21:39;;;;;;;12.30;4.72;;;;;;;;;;5003659;28;20491;-73
2022/06/28 02:24:05;;;;;;;9.02;5.45;;;;;;;;;;5002288;28;20057;-73
2022/06/28 02:26:32;;;;;;;15.38;5.10;;;;;;;;;;5002332;28;20092;-73
2022/06/28 02:28:59;;;;;;;13.30;5.18;;;;;;;;;;4985139;28;20041;-73
2022/06/28 02:31:25;;;;;;;12.32;4.78;;;;;;;;;;5006673;28;20045;-73
2022/06/28 02:33:51;;;;;;;7.80;4.47;;;;;;;;;;5003510;28;20046;-73
2022/06/28 02:41:46;;;;;;;8.30;4.45;;;;;;;;;;5008521;28;20049;-73
2022/06/28 02:44:15;;;;;;;10.88;4.60;;;;;;;;;;5005486;28;20025;-73
2022/06/28 02:46:41;;;;;;;10.35;4.32;;;;;;;;;;5006729;28;20038;-73
2022/06/28 02:49:07;;;;;;;7.35;4.53;;;;;;;;;;5007675;28;20079;-73
2022/06/28 02:51:33;;;;;;;10.52;4.28;;;;;;;;;;5008591;28;20488;-74
2022/06/28 02:54:00;;;;;;;14.73;4.13;;;;;;;;;;5006836;28;20069;-73
2022/06/28 02:56:26;;;;;;;7.45;4.35;;;;;;;;;;5007069;28;20045;-73
2022/06/28 02:58:52;;;;;;;10.27;3.95;;;;;;;;;;5006014;28;20038;-73
2022/06/28 03:01:18;;;;;;;14.63;4.78;;;;;;;;;;5006904;28;20041;-74
2022/06/28 03:03:44;;;;;;;10.35;4.95;;;;;;;;;;5007394;28;20069;-73
2022/06/28 03:06:10;;;;;;;12.70;5.22;;;;;;;;;;5007533;28;20104;-73
2022/06/28 03:08:36;;;;;;;9.88;4.22;;;;;;;;;;5005865;28;20054;-73
2022/06/28 03:11:02;;;;;;;11.07;3.85;;;;;;;;;;4988137;28;20497;-73
2022/06/28 03:13:28;;;;;;;10.27;3.97;;;;;;;;;;5006495;28;20370;-73
2022/06/28 03:15:54;;;;;;;8.85;4.45;;;;;;;;;;5002824;28;20432;-73
2022/06/28 03:18:20;;;;;;;8.57;4.47;;;;;;;;;;5000688;28;20042;-73
2022/06/28 03:20:46;;;;;;;9.98;4.45;;;;;;;;;;5004474;28;20106;-73
2022/06/28 03:23:12;;;;;;;9.93;4.00;;;;;;;;;;5006191;28;20050;-73
2022/06/28 03:25:38;;;;;;;6.53;3.85;;;;;;;;;;5005144;28;20030;-73
2022/06/28 03:28:04;;;;;;;10.05;4.20;;;;;;;;;;4990229;28;20038;-73
2022/06/28 03:30:31;;;;;;;9.55;4.65;;;;;;;;;;5004374;28;20026;-73
2022/06/28 03:32:57;;;;;;;9.63;4.80;;;;;;;;;;5005395;28;20049;-73
2022/06/28 03:35:23;;;;;;;8.35;4.18;;;;;;;;;;5002556;28;20033;-73
2022/06/28 03:37:49;;;;;;;6.38;4.00;;;;;;;;;;4988652;28;20057;-73
2022/06/28 03:40:16;;;;;;;12.80;4.28;;;;;;;;;;5005369;28;20484;-73
2022/06/28 03:42:42;;;;;;;11.80;3.80;;;;;;;;;;5004977;28;20037;-73
2022/06/28 03:45:08;;;;;;;7.18;3.78;;;;;;;;;;5005656;28;20045;-73
2022/06/28 03:47:34;;;;;;;11.13;4.40;;;;;;;;;;4987988;28;20041;-71
2022/06/28 03:50:00;;;;;;;10.13;4.43;;;;;;;;;;4988006;28;20405;-72
2022/06/28 03:52:29;;;;;;;11.52;3.80;;;;;;;;;;5004170;28;20040;-72
2022/06/28 03:54:58;;;;;;;12.45;4.00;;;;;;;;;;4987740;28;20042;-72
2022/06/28 03:57:25;;;;;;;8.63;3.92;;;;;;;;;;5005416;28;20033;-72
2022/06/28 03:59:51;;;;;;;6.72;3.53;;;;;;;;;;5005442;28;20033;-72
2022/06/28 04:02:17;;;;;;;7.45;4.35;;;;;;;;;;5004236;28;20038;-73
2022/06/28 04:04:43;;;;;;;10.55;3.78;;;;;;;;;;5003833;28;20030;-72
2022/06/28 04:07:09;;;;;;;8.43;4.10;;;;;;;;;;5002535;28;20037;-73
2022/06/28 04:09:35;;;;;;;6.30;3.38;;;;;;;;;;4949358;28;1137068;-73
2022/06/28 04:12:01;;;;;;;9.15;3.35;;;;;;;;;;5003643;28;20034;-74
2022/06/28 04:14:27;;;;;;;8.18;4.20;;;;;;;;;;5003338;28;20037;-74
2022/06/28 04:16:53;;;;;;;11.13;5.72;;;;;;;;;;5005011;28;20648;-73
2022/06/28 04:19:19;;;;;;;8.82;5.47;;;;;;;;;;5007032;28;20117;-73
2022/06/28 04:21:45;;;;;;;10.05;6.13;;;;;;;;;;5003123;28;20041;-74
2022/06/28 04:24:11;;;;;;;12.07;7.28;;;;;;;;;;5002467;28;20096;-73
2022/06/28 04:26:37;;;;;;;10.27;4.28;;;;;;;;;;5004148;28;20026;-74
2022/06/28 04:29:03;;;;;;;10.15;4.32;;;;;;;;;;5005347;28;20030;-74
2022/06/28 04:31:30;;;;;;;12.25;4.28;;;;;;;;;;4971624;28;20129;-72
2022/06/28 04:33:56;;;;;;;8.52;4.28;;;;;;;;;;5008392;28;20042;-73
2022/06/28 04:36:23;;;;;;;15.40;5.25;;;;;;;;;;4988885;28;20453;-72
2022/06/28 04:38:49;;;;;;;12.05;4.72;;;;;;;;;;4998848;28;20441;-72
2022/06/28 04:41:15;;;;;;;8.23;4.47;;;;;;;;;;5002200;28;20041;-72
2022/06/28 04:43:41;;;;;;;12.48;4.28;;;;;;;;;;5002141;28;20029;-72
2022/06/28 04:46:07;;;;;;;11.38;4.65;;;;;;;;;;5002832;28;20038;-72
2022/06/28 04:48:33;;;;;;;11.23;4.63;;;;;;;;;;5007896;28;20099;-72
2022/06/28 04:51:10;;;;;;;11.80;4.57;;;;;;;;;;4992753;28;20069;-72
2022/06/28 04:53:37;;;;;;;31.48;18.98;;;;;;;;;;4990778;28;20453;-72
2022/06/28 04:56:03;;;;;;;9.20;4.60;;;;;;;;;;5006727;28;20054;-72
2022/06/28 04:58:29;;;;;;;18.00;9.27;;;;;;;;;;5009220;28;20030;-72
2022/06/28 05:00:55;;;;;;;9.27;4.28;;;;;;;;;;5003808;28;20038;-72
2022/06/28 05:03:21;;;;;;;8.18;4.20;;;;;;;;;;5012479;28;20421;-72
2022/06/28 05:05:47;;;;;;;12.02;5.20;;;;;;;;;;5011510;28;20030;-72
2022/06/28 05:08:13;;;;;;;12.38;5.47;;;;;;;;;;5006274;28;20118;-72
2022/06/28 05:10:40;;;;;;;10.50;4.70;;;;;;;;;;5009583;28;20034;-71
2022/06/28 05:13:06;;;;;;;9.30;4.20;;;;;;;;;;4975654;28;20049;-73
2022/06/28 05:15:32;;;;;;;12.93;4.88;;;;;;;;;;5007945;28;20088;-73
2022/06/28 05:17:57;;;;;;;11.32;4.40;;;;;;;;;;4983661;28;20029;-73
2022/06/28 05:20:24;;;;;;;13.18;4.22;;;;;;;;;;4994265;28;20030;-73
2022/06/28 05:22:50;;;;;;;13.50;4.18;;;;;;;;;;5008483;28;20041;-73
2022/06/28 05:25:16;;;;;;;13.00;4.78;;;;;;;;;;5011513;28;20033;-73
2022/06/28 05:27:42;;;;;;;8.40;3.85;;;;;;;;;;5010436;28;20040;-73
2022/06/28 05:30:08;;;;;;;10.20;4.53;;;;;;;;;;4995610;28;20049;-73
2022/06/28 05:32:34;;;;;;;11.25;4.10;;;;;;;;;;5003387;28;20042;-73
2022/06/28 05:35:00;;;;;;;11.25;3.83;;;;;;;;;;4993845;28;20046;-73
2022/06/28 05:37:26;;;;;;;18.02;10.65;;;;;;;;;;5002540;28;20042;-73
2022/06/28 05:39:52;;;;;;;9.18;3.75;;;;;;;;;;5009500;28;20092;-74
2022/06/28 05:42:18;;;;;;;17.85;8.60;;;;;;;;;;5007683;28;20022;-74
2022/06/28 05:44:44;;;;;;;12.23;3.85;;;;;;;;;;5008986;28;20128;-74
2022/06/28 05:47:11;;;;;;;7.47;3.45;;;;;;;;;;5005678;28;20105;-73
2022/06/28 05:49:37;;;;;;;12.02;3.45;;;;;;;;;;5000544;28;20613;-73
2022/06/28 05:52:03;;;;;;;11.25;3.70;;;;;;;;;;4993805;28;20041;-74
2022/06/28 05:54:29;;;;;;;18.00;4.35;;;;;;;;;;5000955;28;20052;-72
2022/06/28 05:56:55;;;;;;;11.48;3.88;;;;;;;;;;5007694;28;20124;-72
2022/06/28 05:59:21;;;;;;;10.40;3.90;;;;;;;;;;5005910;28;20036;-73
2022/06/28 06:01:47;;;;;;;14.73;4.25;;;;;;;;;;5005842;28;20034;-73
2022/06/28 06:04:13;;;;;;;10.18;4.05;;;;;;;;;;5005236;28;20508;-73
2022/06/28 06:06:39;;;;;;;13.60;4.53;;;;;;;;;;5007003;28;20080;-73
2022/06/28 06:09:05;;;;;;;9.82;4.20;;;;;;;;;;4998911;28;20053;-73
2022/06/28 06:11:31;;;;;;;10.05;4.00;;;;;;;;;;4986875;28;20124;-73
2022/06/28 06:13:57;;;;;;;16.67;4.80;;;;;;;;;;5000244;28;20038;-73
2022/06/28 06:16:23;;;;;;;12.85;3.47;;;;;;;;;;5002103;28;20046;-73
2022/06/28 06:18:49;;;;;;;20.75;10.95;;;;;;;;;;5003920;28;20485;-73
2022/06/28 06:21:15;;;;;;;20.65;6.63;;;;;;;;;;5009177;28;20034;-73
2022/06/28 06:23:41;;;;;;;12.18;3.60;;;;;;;;;;5006438;28;20026;-74
2022/06/28 06:26:07;;;;;;;12.13;2.53;;;;;;;;;;5005004;28;20528;-73
2022/06/28 06:28:35;;;;;;;15.80;3.30;;;;;;;;;;5010283;28;20038;-74
2022/06/28 06:31:01;;;;;;;18.58;3.53;;;;;;;;;;5011319;28;20485;-72
2022/06/28 06:33:27;;;;;;;15.35;2.90;;;17.10;99.90;;;;;;5001284;28;20042;-70
2022/06/28 06:35:53;;;;;;;9.75;2.28;;;;;;;;;;5005639;28;20034;-70
2022/06/28 06:38:19;;;;;;;6.10;1.92;;;;;;;;;;5009294;28;20030;-71
2022/06/28 06:40:45;;;;;;;8.70;1.95;;;;;;;;;;4991504;28;20366;-71
2022/06/28 06:43:11;;;;;;;48.38;25.02;;;;;;;;;;4989263;28;20038;-70
2022/06/28 06:45:37;;;;;;;13.73;3.35;;;;;;;;;;5005099;28;20108;-70
2022/06/28 06:48:03;;;;;;;15.60;5.68;;;;;;;;;;5008130;28;20565;-76
2022/06/28 06:50:29;;;;;;;8.75;2.35;;;;;;;;;;5008458;28;20033;-69
2022/06/28 06:52:55;;;;;;;7.68;1.92;;;;;;;;;;5008512;28;20041;-70
2022/06/28 06:55:20;;;;;;;11.82;2.25;;;23.40;99.90;;;;;;5006155;28;20152;-71
2022/06/28 06:57:46;;;;;;;6.35;1.70;;;;;;;;;;4993899;28;20053;-71
2022/06/28 07:00:12;;;;;;;11.75;1.92;;;;;;;;;;5000123;28;20030;-70
2022/06/28 07:02:40;;;;;;;8.40;1.88;;;24.60;99.90;;;;;;5006250;28;20034;-70
2022/06/28 07:05:06;;;;;;;10.13;2.20;;;;;;;;;;5009405;28;20521;-71
2022/06/28 07:07:32;;;;;;;9.30;2.25;;;;;;;;;;5007298;28;20069;-71
2022/06/28 07:09:58;;;;;;;8.80;1.80;;;;;;;;;;5005038;28;20082;-71
2022/06/28 07:12:24;;;;;;;6.40;1.60;;;;;;;;;;4991822;28;20026;-71
2022/06/28 07:14:50;;;;;;;6.93;1.90;;;;;;;;;;5006780;28;20046;-71
2022/06/28 07:17:17;;;;;;;10.90;1.60;;;26.40;99.90;;;;;;5010035;28;20117;-71
2022/06/28 07:19:43;;;;;;;9.10;1.83;;;;;;;;;;5010291;28;20682;-71
2022/06/28 07:22:09;;;;;;;10.27;1.60;;;;;;;;;;5014662;28;20034;-71
2022/06/28 07:24:35;;;;;;;7.75;2.10;;;;;;;;;;5011026;28;20046;-71
2022/06/28 07:27:01;;;;;;;10.25;2.13;;;27.40;98.20;;;;;;4994041;28;20064;-72
2022/06/28 07:29:27;;;;;;;8.02;2.00;;;;;;;;;;5011602;28;20412;-72
2022/06/28 07:31:53;;;;;;;8.73;2.00;;;;;;;;;;5010611;28;20084;-71
2022/06/28 07:34:19;;;;;;;10.05;2.28;;;;;;;;;;5011020;28;22129;-71
2022/06/28 07:36:46;;;;;;;8.40;1.73;;;;;;;;;;4995134;28;20041;-71
2022/06/28 07:39:12;;;;;;;10.23;1.63;;;;;;;;;;4995011;28;20026;-71
2022/06/28 07:41:38;;;;;;;8.10;1.67;;;;;;;;;;5014009;28;20049;-71
2022/06/28 07:44:03;;;;;;;7.93;1.70;;;22.50;99.90;;;;;;5011670;28;20481;-71
2022/06/28 07:46:29;;;;;;;10.50;2.15;;;;;;;;;;5001611;28;20030;-71
2022/06/28 07:48:55;;;;;;;8.20;1.55;;;;;;;;;;5011263;28;20041;-72
2022/06/28 07:54:06;;;;;;;6.63;1.38;;;25.00;99.90;;;;;;5009470;28;20409;-71
2022/06/28 07:56:32;;;;;;;27.05;2.45;;;;;;;;;;4996090;28;20042;-71
2022/06/28 07:58:58;;;;;;;13.85;1.75;;;;;;;;;;5011481;28;20041;-71
2022/06/28 08:01:24;;;;;;;8.00;1.88;;;;;;;;;;4992390;28;20049;-71
2022/06/28 08:03:50;;;;;;;8.13;1.40;;;;;;;;;;5011825;28;20045;-72
2022/06/28 08:06:16;;;;;;;8.05;1.90;;;;;;;;;;5009200;28;20034;-71
2022/06/28 08:08:42;;;;;;;7.68;1.70;;;;;;;;;;5008895;28;20060;-71
2022/06/28 08:11:09;;;;;;;7.55;1.73;;;;;;;;;;4994829;28;20030;-72
2022/06/28 08:13:35;;;;;;;4.50;1.50;;;;;;;;;;5010652;28;20316;-72
2022/06/28 08:16:02;;;;;;;7.90;1.67;;;;;;;;;;5013384;28;20101;-71
2022/06/28 08:18:27;;;;;;;8.07;1.45;;;28.50;91.80;;;;;;5005273;28;20045;-72
2022/06/28 08:20:53;;;;;;;7.00;1.48;;;;;;;;;;5012306;28;20038;-72
2022/06/28 08:23:19;;;;;;;3.90;1.02;;;;;;;;;;5009574;28;20053;-71
2022/06/28 08:25:46;;;;;;;5.05;1.40;;;;;;;;;;5012772;28;20026;-72
2022/06/28 08:28:13;;;;;;;5.97;1.35;;;26.20;91.30;;;;;;5007312;28;20058;-72
2022/06/28 08:30:40;;;;;;;8.57;1.48;;;;;;;;;;4997444;28;20040;-71
2022/06/28 08:33:06;;;;;;;8.20;1.73;;;26.30;97.80;;;;;;5008135;28;20337;-71
2022/06/28 08:35:31;;;;;;;6.95;2.08;;;26.00;96.80;;;;;;5012272;28;20631;-71
2022/06/28 08:37:57;;;;;;;5.35;1.40;;;;;;;;;;5012714;28;20393;-71
2022/06/28 08:40:25;;;;;;;6.50;1.90;;;;;;;;;;5010620;28;20030;-71
2022/06/28 08:42:55;;;;;;;7.93;1.60;;;;;;;;;;5011288;28;20030;-71
2022/06/28 08:45:22;;;;;;;9.38;1.70;;;27.50;91.70;;;;;;5013858;28;20091;-71
2022/06/28 08:47:51;;;;;;;6.90;1.60;;;;;;;;;;4994037;28;20053;-71
2022/06/28 08:50:34;;;;;;;6.55;1.63;;;28.10;91.40;;;;;;5010324;28;20087;-71
2022/06/28 08:53:06;;;;;;;7.97;1.73;;;;;;;;;;5010827;28;20524;-71
2022/06/28 08:55:33;;;;;;;6.53;1.40;;;;;;;;;;5008424;28;20466;-71
2022/06/28 08:58:00;;;;;;;4.22;1.38;;;;;;;;;;5009431;28;20037;-71
2022/06/28 09:00:26;;;;;;;6.10;1.40;;;;;;;;;;4994588;28;20050;-71
2022/06/28 09:02:53;;;;;;;6.40;1.58;;;;;;;;;;5012587;28;20042;-71
2022/06/28 09:05:20;;;;;;;4.22;1.20;;;;;;;;;;5001960;28;20034;-70
2022/06/28 09:07:46;;;;;;;13.20;1.85;;;29.30;93.10;;;;;;4999263;28;20030;-71
2022/06/28 09:10:12;;;;;;;6.85;1.92;;;29.40;93.60;;;;;;4998702;28;20050;-71
2022/06/28 09:12:39;;;;;;;8.50;1.60;;;;;;;;;;5003695;28;20042;-71
2022/06/28 09:15:05;;;;;;;9.73;1.70;;;;;;;;;;5000336;28;20042;-71
2022/06/28 09:17:33;;;;;;;6.65;1.40;;;;;;;;;;5001995;28;20092;-70
2022/06/28 09:20:01;;;;;;;10.57;2.95;;;27.80;95.10;;;;;;5004074;28;20026;-70
2022/06/28 09:22:33;;;;;;;13.98;1.67;;;;;;;;;;5008087;28;20037;-70
2022/06/28 09:25:00;;;;;;;6.63;1.40;;;;;;;;;;5006724;28;20037;-70
2022/06/28 09:27:37;;;;;;;6.50;2.05;;;26.80;91.70;;;;;;5007340;28;20057;-70
2022/06/28 09:30:04;;;;;;;7.70;1.20;;;;;;;;;;5010016;28;20033;-70
2022/06/28 09:32:32;;;;;;;6.43;1.25;;;27.80;91.00;;;;;;5006410;28;20038;-68
2022/06/28 09:35:03;;;;;;;4.72;1.38;;;;;;;;;;5010382;28;20033;-69
2022/06/28 09:37:50;;;;;;;5.97;1.23;;;28.60;87.10;;;;;;5008961;28;20037;-70
2022/06/28 09:40:24;;;;;;;9.40;1.98;;;;;;;;;;5008122;28;20030;-70
2022/06/28 09:43:05;;;;;;;6.35;1.35;;;;;;;;;;5008485;28;20034;-68
2022/06/28 09:45:32;;;;;;;6.05;1.85;;;;;;;;;;5015827;28;20053;-70
2022/06/28 09:47:58;;;;;;;6.15;0.88;;;;;;;;;;5010764;28;20038;-70
2022/06/28 09:50:24;;;;;;;5.82;1.30;;;;;;;;;;5007629;28;20457;-71
2022/06/28 09:52:50;;;;;;;4.65;1.60;;;28.20;86.50;;;;;;4998354;28;20026;-71
2022/06/28 09:55:17;;;;;;;3.65;0.90;;;;;;;;;;4993283;28;20083;-70
2022/06/28 09:57:47;;;;;;;5.28;1.20;;;28.00;86.40;;;;;;5011154;28;20030;-70
2022/06/28 10:00:15;;;;;;;68.55;51.30;;;28.20;89.80;;;;;;5005249;28;20032;-71
2022/06/28 10:02:42;;;;;;;5.68;1.88;;;;;;;;;;4993128;28;20180;-72
2022/06/28 10:05:09;;;;;;;5.53;1.50;;;;;;;;;;5006621;28;20041;-71
2022/06/28 10:07:35;;;;;;;6.95;1.30;;;;;;;;;;5005007;28;20061;-70
2022/06/28 10:10:04;;;;;;;7.38;1.63;;;;;;;;;;5001699;28;20053;-70
2022/06/28 10:15:18;;;;;;;5.10;1.25;;;;;;;;;;5010214;28;20108;-71
2022/06/28 10:17:46;;;;;;;5.40;2.40;;;;;;;;;;4990989;28;20038;-71
2022/06/28 10:20:18;;;;;;;7.72;2.78;;;28.90;84.50;;;;;;5010812;28;20417;-71
2022/06/28 10:22:44;;;;;;;5.45;1.30;;;;;;;;;;5004950;28;20029;-78
2022/06/28 10:25:15;;;;;;;3.78;1.05;;;;;;;;;;5006698;28;20038;-71
2022/06/28 10:27:45;;;;;;;6.75;2.00;;;;;;;;;;5006536;28;20029;-71
2022/06/28 10:30:17;;;;;;;6.45;2.42;;;28.00;83.50;;;;;;5011597;28;20036;-71
2022/06/28 10:32:46;;;;;;;7.70;1.65;;;;;;;;;;5009209;28;20033;-71
2022/06/28 10:35:35;;;;;;;5.05;1.25;;;;;;;;;;5006981;28;20053;-71
2022/06/28 10:38:07;;;;;;;6.60;1.38;;;;;;;;;;4993803;28;20060;-71
2022/06/28 10:40:38;;;;;;;6.90;1.27;;;;;;;;;;5011615;28;20484;-72
2022/06/28 10:43:04;;;;;;;3.87;1.00;;;29.20;92.00;;;;;;5009472;28;20025;-72
2022/06/28 10:45:49;;;;;;;6.13;1.10;;;;;;;;;;5015843;28;20285;-72
2022/06/28 10:48:15;;;;;;;9.23;1.42;;;28.60;91.70;;;;;;5005123;28;20029;-73
2022/06/28 10:50:58;;;;;;;8.57;2.70;;;28.20;80.90;;;;;;5003627;28;20034;-74
2022/06/28 10:53:25;;;;;;;3.75;1.75;;;;;;;;;;4990881;28;20033;-72
2022/06/28 10:56:10;;;;;;;6.88;1.70;;;;;;;;;;4996141;28;20042;-72
2022/06/28 10:58:55;;;;;;;6.57;1.40;;;;;;;;;;4992812;28;20416;-76
2022/06/28 11:01:39;;;;;;;4.55;1.23;;;29.00;79.60;;;;;;5005331;28;20076;-77
2022/06/28 11:04:25;;;;;;;5.07;1.48;;;;;;;;;;5009243;28;20544;-72
2022/06/28 11:07:07;;;;;;;7.15;1.58;;;;;;;;;;5017492;28;20037;-83
2022/06/28 11:09:33;;;;;;;10.48;1.65;;;;;;;;;;5006722;28;20069;-79
2022/06/28 11:12:12;;;;;;;6.90;1.80;;;;;;;;;;5017904;28;20029;-79
2022/06/28 11:14:48;;;;;;;4.03;1.10;;;;;;;;;;5016716;28;20034;-79
2022/06/28 11:17:15;;;;;;;11.45;1.67;;;;;;;;;;5011554;28;20645;-72
2022/06/28 11:19:50;;;;;;;5.80;1.30;;;;;;;;;;4996864;28;20026;-72
2022/06/28 11:22:18;;;;;;;6.38;1.95;;;28.60;81.20;;;;;;4997329;28;20034;-72
2022/06/28 11:24:44;;;;;;;3.17;1.05;;;28.70;92.30;;;;;;4994775;28;20394;-72
2022/06/28 11:27:23;;;;;;;5.80;1.20;;;;;;;;;;5013659;28;20022;-72
2022/06/28 11:29:54;;;;;;;6.82;1.30;;;28.60;80.30;;;;;;4996591;28;20044;-72
2022/06/28 11:32:23;;;;;;;9.35;1.48;;;28.60;82.10;;;;;;5014686;28;20030;-72
2022/06/28 11:34:57;;;;;;;7.28;1.42;;;28.20;79.10;;;;;;5011564;28;20032;-72
2022/06/28 11:37:23;;;;;;;6.30;1.20;;;;;;;;;;4995181;28;20038;-72
2022/06/28 11:39:53;;;;;;;4.75;1.13;;;;;;;;;;5012300;28;20038;-72
2022/06/28 11:42:19;;;;;;;8.25;1.58;;;28.00;85.10;;;;;;5013497;28;20046;-72
2022/06/28 11:44:46;;;;;;;5.03;1.45;;;;;;;;;;4982908;28;20151;-72
2022/06/28 11:47:12;;;;;;;6.10;1.27;;;;;;;;;;5016452;28;20073;-71
2022/06/28 11:49:38;;;;;;;5.18;1.30;;;27.90;92.60;;;;;;5013213;28;20438;-72
2022/06/28 11:52:04;;;;;;;6.70;1.42;;;28.20;82.40;;;;;;5011468;28;20116;-72
2022/06/28 11:54:29;;;;;;;6.63;1.40;;;27.90;92.60;;;;;;5011748;28;20092;-72
2022/06/28 11:56:56;;;;;;;3.42;0.98;;;;;;;;;;5005288;28;20078;-71
2022/06/28 11:59:42;;;;;;;6.07;1.25;;;;;;;;;;5011421;28;20389;-71
2022/06/28 12:02:08;;;;;;;11.13;1.10;;;;;;;;;;5012542;28;20026;-72
2022/06/28 12:04:33;;;;;;;3.67;1.02;;;27.90;92.40;;;;;;5011462;28;20080;-72
2022/06/28 12:06:59;;;;;;;4.68;1.02;;;;;;;;;;5012739;28;20034;-72
2022/06/28 12:09:25;;;;;;;6.15;1.13;;;;;;;;;;5010950;28;20080;-72
2022/06/28 12:11:53;;;;;;;4.85;1.27;;;27.50;85.20;;;;;;5012776;28;20030;-72
2022/06/28 12:14:23;;;;;;;3.65;1.13;;;;;;;;;;5013643;28;20041;-72
2022/06/28 12:16:59;;;;;;;3.38;0.80;;;27.60;83.00;;;;;;5009672;28;20084;-72
2022/06/28 12:19:33;;;;;;;3.20;0.95;;;27.50;84.10;;;;;;5012390;28;20117;-72
2022/06/28 12:21:59;;;;;;;4.53;0.77;;;;;;;;;;5013009;28;20421;-72
2022/06/28 12:24:38;;;;;;;4.20;0.70;;;;;;;;;;5011696;28;20069;-72
2022/06/28 12:27:05;;;;;;;4.88;0.95;;;;;;;;;;5007587;28;20030;-72
2022/06/28 12:29:31;;;;;;;7.95;0.90;;;27.40;93.40;;;;;;5009137;28;20045;-72
2022/06/28 12:31:58;;;;;;;5.63;1.13;;;;;;;;;;4998065;28;20360;-71
2022/06/28 12:34:23;;;;;;;4.80;0.90;;;27.30;92.40;;;;;;4992363;28;20034;-72
2022/06/28 12:36:49;;;;;;;6.63;0.85;;;;;;;;;;5013185;28;20117;-71
2022/06/28 12:39:15;;;;;;;6.38;1.17;;;;;;;;;;5012932;28;20179;-72
2022/06/28 12:41:41;;;;;;;4.95;0.90;;;27.20;92.90;;;;;;5011321;28;20526;-72
2022/06/28 12:44:07;;;;;;;4.30;0.93;;;;;;;;;;4993232;28;20048;-72
2022/06/28 12:46:33;;;;;;;7.53;1.10;;;;;;;;;;5017273;28;20101;-72
2022/06/28 12:48:59;;;;;;;3.35;0.80;;;;;;;;;;4995104;28;20105;-72
2022/06/28 12:51:26;;;;;;;3.63;0.95;;;;;;;;;;5009803;28;20063;-72
2022/06/28 12:53:51;;;;;;;4.53;1.08;;;27.80;92.30;;;;;;5004815;28;20049;-72
2022/06/28 12:56:18;;;;;;;8.77;1.60;;;27.60;92.50;;;;;;5012268;28;20474;-72
2022/06/28 12:58:47;;;;;;;3.13;1.00;;;;;;;;;;5012606;28;20033;-72
2022/06/28 13:01:14;;;;;;;8.85;1.50;;;;;;;;;;5008390;28;20018;-72
2022/06/28 13:03:41;;;;;;;3.38;0.85;;;;;;;;;;5000061;28;20387;-72
2022/06/28 13:06:07;;;;;;;8.00;1.40;;;;;;;;;;5005806;28;20021;-72
2022/06/28 13:08:34;;;;;;;4.40;0.77;;;;;;;;;;5000203;28;20043;-73
2022/06/28 13:11:03;;;;;;;3.67;1.15;;;28.10;91.70;;;;;;5004751;28;20474;-72
2022/06/28 13:13:29;;;;;;;5.28;0.77;;;;;;;;;;5005589;28;20121;-72
2022/06/28 13:15:56;;;;;;;4.15;0.80;;;;;;;;;;4991519;28;20042;-72
2022/06/28 13:18:22;;;;;;;5.57;0.90;;;;;;;;;;4989857;28;20157;-72
2022/06/28 13:20:49;;;;;;;6.30;1.08;;;;;;;;;;4989603;28;20056;-72
2022/06/28 13:23:14;;;;;;;4.22;1.13;;;;;;;;;;5005562;28;20034;-72
2022/06/28 13:25:40;;;;;;;6.63;1.42;;;;;;;;;;5004994;28;20030;-71
2022/06/28 13:28:08;;;;;;;4.85;1.27;;;;;;;;;;5007088;28;20022;-72
2022/06/28 13:30:36;;;;;;;5.82;2.58;;;28.40;81.40;;;;;;4989518;28;20030;-71
2022/06/28 13:33:03;;;;;;;11.05;7.35;;;;;;;;;;4990571;28;20083;-72
2022/06/28 13:35:29;;;;;;;6.43;1.55;;;;;;;;;;5006671;28;20030;-72
2022/06/28 13:37:55;;;;;;;6.65;2.28;;;;;;;;;;5004595;28;20030;-72
2022/06/28 13:40:22;;;;;;;9.23;2.42;;;;;;;;;;4983618;28;20040;-72
2022/06/28 13:42:48;;;;;;;9.10;2.30;;;28.80;79.30;;;;;;5003098;28;20037;-72
2022/06/28 13:45:15;;;;;;;5.90;1.48;;;28.80;90.90;;;;;;5004016;28;20092;-72
2022/06/28 13:47:42;;;;;;;4.90;1.02;;;;;;;;;;4986829;28;20467;-72
2022/06/28 13:50:09;;;;;;;2.67;0.90;;;28.70;90.70;;;;;;4999561;28;20382;-75
2022/06/28 13:52:36;;;;;;;13.38;1.52;;;;;;;;;;5011113;28;20034;-77
2022/06/28 13:55:03;;;;;;;4.43;0.98;;;;;;;;;;5014624;28;20120;-80
2022/06/28 13:57:29;;;;;;;9.95;1.30;;;;;;;;;;5013711;28;20825;-79
2022/06/28 13:59:55;;;;;;;6.85;1.25;;;28.80;91.30;;;;;;5008999;28;20034;-74
2022/06/28 14:02:22;;;;;;;3.88;1.00;;;28.70;80.40;;;;;;5006196;28;20029;-75
2022/06/28 14:04:49;;;;;;;24.92;18.08;;;;;;;;;;5008136;28;20061;-72
2022/06/28 14:07:15;;;;;;;9.85;5.88;;;;;;;;;;4997210;28;20042;-72
2022/06/28 14:09:42;;;;;;;3.42;1.00;;;;;;;;;;4998744;28;20541;-72
2022/06/28 14:12:08;;;;;;;4.43;1.00;;;28.50;90.90;;;;;;4996251;28;20033;-72
2022/06/28 14:14:36;;;;;;;5.75;1.67;;;;;;;;;;4994110;28;20058;-72
2022/06/28 14:17:02;;;;;;;6.97;1.83;;;28.60;84.60;;;;;;5006107;28;20425;-72
2022/06/28 14:19:28;;;;;;;6.72;1.38;;;28.30;91.40;;;;;;5008096;28;20088;-72
2022/06/28 14:21:55;;;;;;;5.40;1.00;;;;;;;;;;5002372;28;20466;-72
2022/06/28 14:24:21;;;;;;;6.80;1.30;;;;;;;;;;5006964;28;20370;-72
2022/06/28 14:26:47;;;;;;;8.20;1.65;;;;;;;;;;4997837;28;20479;-72
2022/06/28 14:29:13;;;;;;;6.75;1.85;;;;;;;;;;5013420;28;20042;-72
2022/06/28 14:31:39;;;;;;;5.53;1.10;;;;;;;;;;5012250;28;20482;-72